createdAt,value
2019-06-08T00:04:31.014Z,84
2019-06-08T00:09:31.168Z,84.5
2019-06-08T00:14:31.181Z,83.4
2019-06-08T00:19:31.230Z,82.8
2019-06-08T00:24:31.159Z,84.6
2019-06-08T00:29:31.009Z,82.5
2019-06-08T00:34:31.041Z,79.5
2019-06-08T00:39:31.305Z,77.9
2019-06-08T00:44:31.177Z,77
2019-06-08T00:49:31.219Z,75.7
2019-06-08T00:54:31.281Z,73.5
2019-06-08T00:59:31.192Z,71.2
2019-06-08T01:04:31.237Z,67.2
2019-06-08T01:09:31.524Z,65
2019-06-08T01:14:31.299Z,65
2019-06-08T01:19:31.090Z,63.8
2019-06-08T01:24:31.078Z,61.3
2019-06-08T01:29:31.082Z,58.7
2019-06-08T01:34:31.213Z,58.2
2019-06-08T01:39:32.721Z,58
2019-06-08T01:44:32.255Z,59.4
2019-06-08T01:49:32.727Z,60.6
2019-06-08T01:54:33.151Z,58.9
2019-06-08T01:59:34.868Z,59.2
2019-06-08T02:04:34.713Z,58.5
2019-06-08T02:09:31.076Z,58.4
2019-06-08T02:14:31.453Z,58.1
2019-06-08T02:19:31.112Z,57.8
2019-06-08T02:24:31.427Z,57.2
2019-06-08T02:29:31.869Z,56.7
2019-06-08T02:34:36.068Z,56.7
2019-06-08T02:39:32.887Z,56.5
2019-06-08T02:44:34.287Z,56.8
2019-06-08T02:49:33.030Z,57
2019-06-08T02:54:35.248Z,56.1
2019-06-08T02:59:32.841Z,55.8
2019-06-08T03:04:34.448Z,56.1
2019-06-08T03:09:32.647Z,56.4
2019-06-08T03:14:33.175Z,56.3
2019-06-08T03:19:33.064Z,56
2019-06-08T03:24:34.437Z,56.8
2019-06-08T03:29:32.679Z,55.5
2019-06-08T03:34:31.310Z,55.9
2019-06-08T03:39:31.334Z,56.3
2019-06-08T03:44:31.123Z,55.7
2019-06-08T03:49:56.242Z,55.7
2019-06-08T03:54:31.322Z,56.1
2019-06-08T03:59:31.382Z,53.7
2019-06-08T04:04:31.299Z,54.2
2019-06-08T04:09:31.354Z,53.2
2019-06-08T04:14:31.253Z,52.5
2019-06-08T04:19:31.133Z,52.7
2019-06-08T04:24:31.312Z,53.6
2019-06-08T04:29:31.384Z,53.7
2019-06-08T04:34:31.400Z,54.7
2019-06-08T04:39:31.343Z,53.3
2019-06-08T04:44:31.159Z,53.6
2019-06-08T04:49:31.354Z,53.1
2019-06-08T04:54:31.327Z,52.9
2019-06-08T04:59:31.327Z,52.7
2019-06-08T05:04:31.335Z,53.5
2019-06-08T05:09:31.361Z,53
2019-06-08T05:14:31.178Z,53.1
2019-06-08T05:19:32.537Z,53
2019-06-08T05:24:31.172Z,53.7
2019-06-08T05:29:31.450Z,52.3
2019-06-08T05:34:31.196Z,53.6
2019-06-08T05:39:31.456Z,53.6
2019-06-08T05:44:31.317Z,52.4
2019-06-08T05:49:31.435Z,52.8
2019-06-08T05:54:31.315Z,53.1
2019-06-08T05:59:31.220Z,52.8
2019-06-08T06:04:31.207Z,52.8
2019-06-08T06:09:31.203Z,53.5
2019-06-08T06:14:31.356Z,53.9
2019-06-08T06:19:31.392Z,53.5
2019-06-08T06:24:31.440Z,52.5
2019-06-08T06:29:31.350Z,51.8
2019-06-08T06:34:31.407Z,52.1
2019-06-08T06:39:31.440Z,53.2
2019-06-08T06:44:31.468Z,51.5
2019-06-08T06:49:31.404Z,51
2019-06-08T06:54:31.445Z,50.8
2019-06-08T06:59:31.486Z,48.9
2019-06-08T07:04:31.420Z,51.2
2019-06-08T07:09:31.423Z,51.9
2019-06-08T07:14:31.222Z,50.9
2019-06-08T07:19:31.242Z,51.2
2019-06-08T07:24:31.449Z,50.6
2019-06-08T07:29:31.220Z,51.4
2019-06-08T07:34:31.231Z,51.8
2019-06-08T07:39:31.435Z,51.4
2019-06-08T07:44:31.481Z,51.1
2019-06-08T07:49:31.519Z,50.6
2019-06-08T07:54:31.427Z,50.7
2019-06-08T07:59:31.691Z,50.1
2019-06-08T08:04:31.247Z,49.6
2019-06-08T08:09:31.743Z,49.6
2019-06-08T08:14:31.470Z,49.5
2019-06-08T08:19:31.518Z,48.2
2019-06-08T08:24:31.390Z,50
2019-06-08T08:29:31.841Z,49.3
2019-06-08T08:34:31.285Z,49.6
2019-06-08T08:39:31.290Z,48.4
2019-06-08T08:44:31.460Z,48.6
2019-06-08T08:49:31.295Z,47.2
2019-06-08T08:54:31.481Z,47.9
2019-06-08T08:59:31.419Z,47.7
2019-06-08T09:04:31.314Z,47.6
2019-06-08T09:09:31.433Z,47.3
2019-06-08T09:14:31.323Z,46.6
2019-06-08T09:19:31.265Z,46.4
2019-06-08T09:24:31.345Z,46
2019-06-08T09:29:31.509Z,45.9
2019-06-08T09:34:31.540Z,43.5
2019-06-08T09:39:31.555Z,44.2
2019-06-08T09:44:31.416Z,44.3
2019-06-08T09:49:31.315Z,42.9
2019-06-08T09:54:31.462Z,45
2019-06-08T09:59:31.322Z,42.5
2019-06-08T10:04:31.889Z,43
2019-06-08T10:09:31.350Z,43.9
2019-06-08T10:14:31.595Z,45.3
2019-06-08T10:19:31.496Z,45.9
2019-06-08T10:24:31.547Z,45.1
2019-06-08T10:29:31.750Z,42.4
2019-06-08T10:34:31.468Z,42.7
2019-06-08T10:39:31.561Z,40.8
2019-06-08T10:44:31.523Z,40.5
2019-06-08T10:49:31.492Z,39.8
2019-06-08T10:54:31.560Z,42.1
2019-06-08T10:59:31.354Z,41.9
2019-06-08T11:04:31.509Z,42.1
2019-06-08T11:09:31.415Z,42.8
2019-06-08T11:14:31.634Z,42
2019-06-08T11:19:31.671Z,43.7
2019-06-08T11:24:31.549Z,44.3
2019-06-08T11:29:31.455Z,43.4
2019-06-08T11:34:31.508Z,43
2019-06-08T11:39:31.558Z,41.7
2019-06-08T11:44:31.556Z,41.2
2019-06-08T11:49:31.415Z,41.5
2019-06-08T11:54:40.820Z,39.5
2019-06-08T11:59:31.392Z,39.6
2019-06-08T12:04:31.383Z,42.9
2019-06-08T12:09:31.390Z,40.4
2019-06-08T12:14:33.883Z,42.5
2019-06-08T12:19:31.872Z,40.1
2019-06-08T12:24:42.573Z,37.5
2019-06-08T12:29:31.564Z,39.8
2019-06-08T12:34:31.596Z,35.6
2019-06-08T12:39:31.423Z,37.9
2019-06-08T12:44:31.531Z,35.5
2019-06-08T12:49:31.612Z,37
2019-06-08T12:54:31.653Z,37.4
2019-06-08T12:59:31.600Z,37.3
2019-06-08T13:04:31.606Z,34.8
2019-06-08T13:09:31.655Z,35.5
2019-06-08T13:14:31.519Z,35.7
2019-06-08T13:19:31.422Z,34.9
2019-06-08T13:24:31.658Z,36.7
2019-06-08T13:29:31.713Z,35.7
2019-06-08T13:34:31.593Z,36.2
2019-06-08T13:39:31.649Z,36.9
2019-06-08T13:44:31.695Z,36.8
2019-06-08T13:49:31.433Z,36
2019-06-08T13:54:31.649Z,36.3
2019-06-08T13:59:31.455Z,36
2019-06-08T14:04:31.441Z,35.8
2019-06-08T14:09:32.027Z,35.3
2019-06-08T14:14:33.958Z,33.3
2019-06-08T14:19:32.111Z,33.4
2019-06-08T14:24:34.961Z,33
2019-06-08T14:29:31.689Z,34
2019-06-08T14:34:31.741Z,33.3
2019-06-08T14:39:32.142Z,34.7
2019-06-08T14:44:34.216Z,34.3
2019-06-08T14:49:35.329Z,33.1
2019-06-08T14:54:35.424Z,32.9
2019-06-08T14:59:32.046Z,33.3
2019-06-08T15:04:39.368Z,34.9
2019-06-08T15:09:31.495Z,37
2019-06-08T15:14:38.358Z,35.3
2019-06-08T15:19:32.921Z,35.6
2019-06-08T15:24:33.245Z,35.3
2019-06-08T15:29:33.079Z,34.4
2019-06-08T15:34:33.364Z,35.8
2019-06-08T15:39:34.332Z,35.3
2019-06-08T15:44:33.958Z,35.9
2019-06-08T15:49:34.053Z,36.2
2019-06-08T15:54:40.646Z,36.9
2019-06-08T15:59:41.687Z,35.1
2019-06-08T16:04:32.108Z,35.7
2019-06-08T16:09:32.326Z,36.2
2019-06-08T16:14:33.083Z,35.8
2019-06-08T16:19:32.089Z,35
2019-06-08T16:24:32.126Z,36.8
2019-06-08T16:29:33.462Z,34.8
2019-06-08T16:34:31.671Z,35.8
2019-06-08T16:39:33.100Z,35.5
2019-06-08T16:44:32.570Z,36.2
2019-06-08T16:49:31.552Z,36.9
2019-06-08T16:54:33.163Z,36.3
2019-06-08T16:59:32.556Z,35.8
2019-06-08T17:04:33.600Z,35.6
2019-06-08T17:09:34.228Z,36.2
2019-06-08T17:14:32.278Z,35.7
2019-06-08T17:19:32.328Z,35.4
2019-06-08T17:24:32.733Z,37.5
2019-06-08T17:29:32.977Z,36.7
2019-06-08T17:34:32.109Z,36.9
2019-06-08T17:39:32.030Z,38.3
2019-06-08T17:44:32.663Z,38.9
2019-06-08T17:49:32.694Z,40.5
2019-06-08T17:54:32.863Z,43.4
2019-06-08T17:59:33.118Z,43.2
2019-06-08T18:04:31.813Z,42.2
2019-06-08T18:09:31.865Z,42.1
2019-06-08T18:14:31.796Z,45.8
2019-06-08T18:19:31.815Z,46.7
2019-06-08T18:24:31.741Z,46.7
2019-06-08T18:29:31.608Z,47.7
2019-06-08T18:34:31.825Z,46.6
2019-06-08T18:39:31.899Z,48
2019-06-08T18:44:31.849Z,47.6
2019-06-08T18:49:31.987Z,46.5
2019-06-08T18:54:31.875Z,50.6
2019-06-08T18:59:31.794Z,50.5
2019-06-08T19:04:31.637Z,48.2
2019-06-08T19:09:31.868Z,51.6
2019-06-08T19:14:32.019Z,49.5
2019-06-08T19:19:31.904Z,49.6
2019-06-08T19:24:32.105Z,49.3
2019-06-08T19:29:31.951Z,49.5
2019-06-08T19:34:33.976Z,54.2
2019-06-08T19:39:31.828Z,55.7
2019-06-08T19:44:31.691Z,54.6
2019-06-08T19:49:31.832Z,51.3
2019-06-08T19:54:31.860Z,51.5
2019-06-08T19:59:31.849Z,53.4
2019-06-08T20:04:31.954Z,58.2
2019-06-08T20:09:31.709Z,58.9
2019-06-08T20:14:31.963Z,59.6
2019-06-08T20:19:31.764Z,58.3
2019-06-08T20:24:31.836Z,58.5
2019-06-08T20:29:31.887Z,59.2
2019-06-08T20:34:31.690Z,58.3
2019-06-08T20:39:31.860Z,58.7
2019-06-08T20:44:31.817Z,59.9
2019-06-08T20:49:32.102Z,59.8
2019-06-08T20:54:31.760Z,60.3
2019-06-08T20:59:34.632Z,60.5
2019-06-08T21:04:31.925Z,60.5
2019-06-08T21:09:31.843Z,61.4
2019-06-08T21:14:31.861Z,61.7
2019-06-08T21:19:31.933Z,62.8
2019-06-08T21:24:31.873Z,62.5
2019-06-08T21:29:56.100Z,61.5
2019-06-08T21:34:31.737Z,62.7
2019-06-08T21:39:31.712Z,64.5
2019-06-08T21:44:31.773Z,64.8
2019-06-08T21:49:31.985Z,65.3
2019-06-08T21:54:31.799Z,64.5
2019-06-08T21:59:31.770Z,64.8
2019-06-08T22:04:31.715Z,64.9
2019-06-08T22:09:31.735Z,65
2019-06-08T22:14:31.745Z,65.3
2019-06-08T22:19:31.738Z,65.1
2019-06-08T22:24:31.729Z,65.3
2019-06-08T22:29:31.899Z,66.7
2019-06-08T22:34:31.914Z,64.8
2019-06-08T22:39:31.752Z,66
2019-06-08T22:44:31.784Z,67.5
2019-06-08T22:49:31.770Z,66.4
2019-06-08T22:54:31.966Z,66.6
2019-06-08T22:59:32.002Z,66.5
2019-06-08T23:04:31.927Z,66.2
2019-06-08T23:09:31.956Z,66.5
2019-06-08T23:14:31.885Z,67.1
2019-06-08T23:19:31.776Z,66.9
2019-06-08T23:24:31.920Z,67.2
2019-06-08T23:29:31.766Z,66.3
2019-06-08T23:34:31.759Z,67.3
2019-06-08T23:39:31.951Z,67.9
2019-06-08T23:44:31.792Z,68.6
2019-06-08T23:49:31.786Z,69
2019-06-08T23:54:31.778Z,68.9
2019-06-08T23:59:31.783Z,68.9
